Airfield :
LOGIN :

Register | Disclaimer

   EN    FR    IT 

 










Legend :    VFR   Marginal VFR   IFR   Intensive IFR   Very Intensive IFR
Visi :
Ceiling :
>= 8 km
>= 3000ft
5 to 8 km
1000 to 3000 ft
1500m to 5 km
500 to 1000 ft
800 to 1500m
200 to 500 ft
< 800m
< 200 ft
Symbols :   Thunderstorms  Fog  Heavy snow  Heavy precipitations  Wind > 20 kt
SIGMETs :     Misc.  Thunderstorms  Icing  Turbulence  Mountain Waves  Volcanic Ashes






- Airport Elevation : 56 ft
- IATA code : ILY


EGPI - Islay

CURRENT METAR :
  • 230150Z AUTO 17012KT 130V190 9999 BKN027/// SCT038/// 10/08 Q1017 RERA

EXPIRED METARs :
  • 230120Z AUTO 17011KT 130V200 9999 BKN027/// BKN035/// 10/07 Q1017
  • 230050Z AUTO 17011KT 140V200 9999 OVC030/// 10/08 Q1018
  • 230020Z AUTO 18010KT 140V200 9999 BKN031/// 10/08 Q1018
  • 222350Z AUTO 17008KT 140V200 9999 BKN033/// 10/09 Q1018
  • 222320Z AUTO 17007KT 140V200 9999 BKN034/// 09/08 Q1018

Expired Forecast.



MET'MAP, your aeronautical weather chart ! - Copyright ORBIFLY December 2007 - Disclaimer

ORBIFLY MET'MAP TEAM :

Programming & Development : Alexandra Zaïnal
Concept & original design : Baudouin d'Aumeries
Assistance for programming : Marc-Olivier Méhu
Technical & hardware support : Manuel Goepfert

Contact : metmap@orbifly.com




SOURCES & CREDITS :

   NOAA